sensor_id;sensor_type;location;lat;lon;timestamp;P1;durP1;ratioP1;P2;durP2;ratioP2
75552;SDS011;64136;53.118;17.996;2023-06-10T00:01:50;6.50;;;3.00;;
75552;SDS011;64136;53.118;17.996;2023-06-10T00:06:44;5.00;;;2.80;;
75552;SDS011;64136;53.118;17.996;2023-06-10T00:09:14;5.60;;;3.20;;
75552;SDS011;64136;53.118;17.996;2023-06-10T00:11:42;6.30;;;3.60;;
75552;SDS011;64136;53.118;17.996;2023-06-10T00:14:09;7.60;;;2.60;;
75552;SDS011;64136;53.118;17.996;2023-06-10T00:16:36;9.10;;;3.50;;
75552;SDS011;64136;53.118;17.996;2023-06-10T00:19:04;4.60;;;2.70;;
75552;SDS011;64136;53.118;17.996;2023-06-10T00:21:32;5.80;;;3.10;;
75552;SDS011;64136;53.118;17.996;2023-06-10T00:24:07;4.50;;;2.80;;
75552;SDS011;64136;53.118;17.996;2023-06-10T00:26:38;5.00;;;3.10;;
75552;SDS011;64136;53.118;17.996;2023-06-10T00:29:07;3.30;;;2.50;;
75552;SDS011;64136;53.118;17.996;2023-06-10T00:31:35;5.00;;;3.00;;
75552;SDS011;64136;53.118;17.996;2023-06-10T00:34:03;5.10;;;2.90;;
75552;SDS011;64136;53.118;17.996;2023-06-10T00:36:31;6.00;;;3.10;;
75552;SDS011;64136;53.118;17.996;2023-06-10T00:38:58;3.60;;;3.20;;
75552;SDS011;64136;53.118;17.996;2023-06-10T00:41:25;7.10;;;3.30;;
75552;SDS011;64136;53.118;17.996;2023-06-10T00:43:52;5.90;;;3.20;;
75552;SDS011;64136;53.118;17.996;2023-06-10T00:46:19;5.90;;;3.00;;
75552;SDS011;64136;53.118;17.996;2023-06-10T00:48:50;3.90;;;2.30;;
75552;SDS011;64136;53.118;17.996;2023-06-10T00:51:17;6.00;;;3.10;;
75552;SDS011;64136;53.118;17.996;2023-06-10T00:53:45;6.80;;;2.80;;
75552;SDS011;64136;53.118;17.996;2023-06-10T00:56:13;4.80;;;2.90;;
75552;SDS011;64136;53.118;17.996;2023-06-10T00:58:41;3.20;;;2.40;;
75552;SDS011;64136;53.118;17.996;2023-06-10T01:01:09;6.60;;;3.40;;
75552;SDS011;64136;53.118;17.996;2023-06-10T01:03:37;5.10;;;2.90;;
75552;SDS011;64136;53.118;17.996;2023-06-10T01:06:13;5.10;;;3.30;;
75552;SDS011;64136;53.118;17.996;2023-06-10T01:09:00;7.90;;;3.50;;
75552;SDS011;64136;53.118;17.996;2023-06-10T01:11:34;7.90;;;3.20;;
75552;SDS011;64136;53.118;17.996;2023-06-10T01:14:07;5.10;;;2.50;;
75552;SDS011;64136;53.118;17.996;2023-06-10T01:16:36;6.40;;;3.20;;
75552;SDS011;64136;53.118;17.996;2023-06-10T01:19:03;6.40;;;3.00;;
75552;SDS011;64136;53.118;17.996;2023-06-10T01:21:30;4.80;;;3.40;;
75552;SDS011;64136;53.118;17.996;2023-06-10T01:23:57;4.70;;;3.00;;
75552;SDS011;64136;53.118;17.996;2023-06-10T01:29:00;5.30;;;2.80;;
75552;SDS011;64136;53.118;17.996;2023-06-10T01:31:38;6.20;;;2.80;;
75552;SDS011;64136;53.118;17.996;2023-06-10T01:34:16;5.00;;;2.70;;
75552;SDS011;64136;53.118;17.996;2023-06-10T01:36:46;4.90;;;2.90;;
75552;SDS011;64136;53.118;17.996;2023-06-10T01:39:15;7.20;;;3.50;;
75552;SDS011;64136;53.118;17.996;2023-06-10T01:41:43;5.50;;;2.80;;
75552;SDS011;64136;53.118;17.996;2023-06-10T01:46:39;5.60;;;2.40;;
75552;SDS011;64136;53.118;17.996;2023-06-10T01:49:06;4.70;;;2.60;;
75552;SDS011;64136;53.118;17.996;2023-06-10T01:51:33;5.20;;;3.20;;
75552;SDS011;64136;53.118;17.996;2023-06-10T01:54:00;5.30;;;3.80;;
75552;SDS011;64136;53.118;17.996;2023-06-10T01:56:26;6.60;;;3.10;;
75552;SDS011;64136;53.118;17.996;2023-06-10T01:58:53;5.10;;;3.20;;
75552;SDS011;64136;53.118;17.996;2023-06-10T02:01:25;4.20;;;2.80;;
75552;SDS011;64136;53.118;17.996;2023-06-10T02:03:52;4.40;;;2.90;;
75552;SDS011;64136;53.118;17.996;2023-06-10T02:06:19;6.30;;;3.40;;
75552;SDS011;64136;53.118;17.996;2023-06-10T02:08:46;4.50;;;3.00;;
75552;SDS011;64136;53.118;17.996;2023-06-10T02:11:13;5.10;;;2.80;;
75552;SDS011;64136;53.118;17.996;2023-06-10T02:13:40;6.30;;;3.60;;
75552;SDS011;64136;53.118;17.996;2023-06-10T02:16:07;3.70;;;2.60;;
75552;SDS011;64136;53.118;17.996;2023-06-10T02:18:34;6.90;;;3.40;;
75552;SDS011;64136;53.118;17.996;2023-06-10T02:21:00;5.00;;;3.80;;
75552;SDS011;64136;53.118;17.996;2023-06-10T02:23:27;5.80;;;3.30;;
75552;SDS011;64136;53.118;17.996;2023-06-10T02:25:54;4.90;;;3.10;;
75552;SDS011;64136;53.118;17.996;2023-06-10T02:28:21;4.10;;;2.90;;
75552;SDS011;64136;53.118;17.996;2023-06-10T02:30:48;6.10;;;2.90;;
75552;SDS011;64136;53.118;17.996;2023-06-10T02:33:16;5.40;;;3.30;;
75552;SDS011;64136;53.118;17.996;2023-06-10T02:38:10;5.00;;;3.10;;
75552;SDS011;64136;53.118;17.996;2023-06-10T02:40:37;9.40;;;4.00;;
75552;SDS011;64136;53.118;17.996;2023-06-10T02:43:04;4.20;;;2.50;;
75552;SDS011;64136;53.118;17.996;2023-06-10T02:45:31;4.90;;;3.40;;
75552;SDS011;64136;53.118;17.996;2023-06-10T02:47:59;4.90;;;2.90;;
75552;SDS011;64136;53.118;17.996;2023-06-10T02:50:26;5.60;;;3.00;;
75552;SDS011;64136;53.118;17.996;2023-06-10T02:53:06;6.00;;;3.10;;
75552;SDS011;64136;53.118;17.996;2023-06-10T02:55:34;5.80;;;3.20;;
75552;SDS011;64136;53.118;17.996;2023-06-10T02:58:03;7.30;;;3.40;;
75552;SDS011;64136;53.118;17.996;2023-06-10T03:00:30;4.80;;;3.00;;
75552;SDS011;64136;53.118;17.996;2023-06-10T03:02:57;4.20;;;3.10;;
75552;SDS011;64136;53.118;17.996;2023-06-10T03:05:31;4.90;;;3.00;;
75552;SDS011;64136;53.118;17.996;2023-06-10T03:07:59;5.20;;;2.40;;
75552;SDS011;64136;53.118;17.996;2023-06-10T03:10:27;8.40;;;3.70;;
75552;SDS011;64136;53.118;17.996;2023-06-10T03:12:54;3.90;;;2.90;;
75552;SDS011;64136;53.118;17.996;2023-06-10T03:15:22;5.60;;;3.80;;
75552;SDS011;64136;53.118;17.996;2023-06-10T03:17:51;6.70;;;3.30;;
75552;SDS011;64136;53.118;17.996;2023-06-10T03:20:18;6.40;;;4.00;;
75552;SDS011;64136;53.118;17.996;2023-06-10T03:22:45;10.40;;;2.90;;
75552;SDS011;64136;53.118;17.996;2023-06-10T03:25:12;5.50;;;3.50;;
75552;SDS011;64136;53.118;17.996;2023-06-10T03:27:46;7.00;;;3.80;;
75552;SDS011;64136;53.118;17.996;2023-06-10T03:32:41;6.50;;;3.50;;
75552;SDS011;64136;53.118;17.996;2023-06-10T03:35:09;7.30;;;4.70;;
75552;SDS011;64136;53.118;17.996;2023-06-10T03:37:36;4.40;;;3.50;;
75552;SDS011;64136;53.118;17.996;2023-06-10T03:40:04;6.30;;;3.10;;
75552;SDS011;64136;53.118;17.996;2023-06-10T03:43:00;5.80;;;2.70;;
75552;SDS011;64136;53.118;17.996;2023-06-10T03:48:57;3.30;;;2.10;;
75552;SDS011;64136;53.118;17.996;2023-06-10T03:51:30;2.90;;;2.60;;
75552;SDS011;64136;53.118;17.996;2023-06-10T03:54:08;4.50;;;2.80;;
75552;SDS011;64136;53.118;17.996;2023-06-10T03:56:52;3.00;;;2.50;;
75552;SDS011;64136;53.118;17.996;2023-06-10T03:59:22;4.70;;;3.20;;
75552;SDS011;64136;53.118;17.996;2023-06-10T04:01:51;6.20;;;3.10;;
75552;SDS011;64136;53.118;17.996;2023-06-10T04:04:18;4.80;;;2.30;;
75552;SDS011;64136;53.118;17.996;2023-06-10T04:06:46;4.50;;;2.70;;
75552;SDS011;64136;53.118;17.996;2023-06-10T04:09:15;4.10;;;2.90;;
75552;SDS011;64136;53.118;17.996;2023-06-10T04:11:52;6.80;;;3.20;;
75552;SDS011;64136;53.118;17.996;2023-06-10T04:14:19;4.30;;;2.50;;
75552;SDS011;64136;53.118;17.996;2023-06-10T04:16:49;6.00;;;3.40;;
75552;SDS011;64136;53.118;17.996;2023-06-10T04:19:20;6.20;;;2.90;;
75552;SDS011;64136;53.118;17.996;2023-06-10T04:21:53;4.30;;;2.70;;
75552;SDS011;64136;53.118;17.996;2023-06-10T04:27:04;5.70;;;2.90;;
75552;SDS011;64136;53.118;17.996;2023-06-10T04:32:07;7.00;;;2.60;;
75552;SDS011;64136;53.118;17.996;2023-06-10T04:34:34;6.50;;;2.60;;
75552;SDS011;64136;53.118;17.996;2023-06-10T04:37:05;4.80;;;2.50;;
75552;SDS011;64136;53.118;17.996;2023-06-10T04:42:12;2.50;;;2.20;;
75552;SDS011;64136;53.118;17.996;2023-06-10T04:44:53;4.00;;;2.70;;
75552;SDS011;64136;53.118;17.996;2023-06-10T04:47:28;3.60;;;1.90;;
75552;SDS011;64136;53.118;17.996;2023-06-10T04:50:02;4.00;;;2.30;;
75552;SDS011;64136;53.118;17.996;2023-06-10T04:52:37;4.40;;;2.50;;
75552;SDS011;64136;53.118;17.996;2023-06-10T04:55:13;4.60;;;1.90;;
75552;SDS011;64136;53.118;17.996;2023-06-10T04:57:53;4.70;;;2.30;;
75552;SDS011;64136;53.118;17.996;2023-06-10T05:00:27;5.00;;;2.10;;
75552;SDS011;64136;53.118;17.996;2023-06-10T05:05:22;3.80;;;1.90;;
75552;SDS011;64136;53.118;17.996;2023-06-10T05:07:55;3.10;;;1.90;;
75552;SDS011;64136;53.118;17.996;2023-06-10T05:10:24;5.40;;;2.20;;
75552;SDS011;64136;53.118;17.996;2023-06-10T05:13:00;2.70;;;2.30;;
75552;SDS011;64136;53.118;17.996;2023-06-10T05:15:29;6.30;;;2.20;;
75552;SDS011;64136;53.118;17.996;2023-06-10T05:20:39;5.00;;;2.20;;
75552;SDS011;64136;53.118;17.996;2023-06-10T05:23:09;5.40;;;1.70;;
75552;SDS011;64136;53.118;17.996;2023-06-10T05:25:58;4.40;;;2.00;;
75552;SDS011;64136;53.118;17.996;2023-06-10T05:28:51;4.80;;;2.40;;
75552;SDS011;64136;53.118;17.996;2023-06-10T05:40:37;2.70;;;1.70;;
75552;SDS011;64136;53.118;17.996;2023-06-10T05:44:17;3.50;;;2.20;;
75552;SDS011;64136;53.118;17.996;2023-06-10T05:53:12;5.20;;;2.00;;
75552;SDS011;64136;53.118;17.996;2023-06-10T05:55:57;3.20;;;1.80;;
75552;SDS011;64136;53.118;17.996;2023-06-10T05:58:28;4.60;;;2.20;;
75552;SDS011;64136;53.118;17.996;2023-06-10T06:04:27;6.60;;;3.40;;
75552;SDS011;64136;53.118;17.996;2023-06-10T06:06:54;4.60;;;2.20;;
75552;SDS011;64136;53.118;17.996;2023-06-10T06:09:47;5.50;;;2.40;;
75552;SDS011;64136;53.118;17.996;2023-06-10T06:15:24;4.30;;;2.40;;
75552;SDS011;64136;53.118;17.996;2023-06-10T06:17:56;6.70;;;2.30;;
75552;SDS011;64136;53.118;17.996;2023-06-10T06:20:33;4.40;;;2.10;;
75552;SDS011;64136;53.118;17.996;2023-06-10T06:23:27;7.10;;;2.40;;
75552;SDS011;64136;53.118;17.996;2023-06-10T06:26:13;3.80;;;2.10;;
75552;SDS011;64136;53.118;17.996;2023-06-10T06:28:49;4.10;;;2.00;;
75552;SDS011;64136;53.118;17.996;2023-06-10T06:31:44;5.70;;;2.30;;
75552;SDS011;64136;53.118;17.996;2023-06-10T06:34:42;6.80;;;2.60;;
75552;SDS011;64136;53.118;17.996;2023-06-10T06:37:24;5.60;;;2.40;;
75552;SDS011;64136;53.118;17.996;2023-06-10T06:40:12;3.30;;;1.90;;
75552;SDS011;64136;53.118;17.996;2023-06-10T06:42:45;3.70;;;1.90;;
75552;SDS011;64136;53.118;17.996;2023-06-10T06:45:24;2.30;;;1.50;;
75552;SDS011;64136;53.118;17.996;2023-06-10T06:48:00;2.90;;;2.50;;
75552;SDS011;64136;53.118;17.996;2023-06-10T06:50:35;8.70;;;3.20;;
75552;SDS011;64136;53.118;17.996;2023-06-10T06:56:25;8.10;;;2.90;;
75552;SDS011;64136;53.118;17.996;2023-06-10T06:58:54;4.60;;;2.30;;
75552;SDS011;64136;53.118;17.996;2023-06-10T07:02:02;3.00;;;2.10;;
75552;SDS011;64136;53.118;17.996;2023-06-10T07:04:42;4.70;;;2.50;;
75552;SDS011;64136;53.118;17.996;2023-06-10T07:07:12;3.10;;;2.10;;
75552;SDS011;64136;53.118;17.996;2023-06-10T07:09:46;4.40;;;2.70;;
75552;SDS011;64136;53.118;17.996;2023-06-10T07:12:21;2.80;;;2.10;;
75552;SDS011;64136;53.118;17.996;2023-06-10T07:15:03;4.90;;;2.60;;
75552;SDS011;64136;53.118;17.996;2023-06-10T07:20:26;5.20;;;2.20;;
75552;SDS011;64136;53.118;17.996;2023-06-10T07:23:10;6.50;;;2.60;;
75552;SDS011;64136;53.118;17.996;2023-06-10T07:25:57;3.40;;;2.40;;
75552;SDS011;64136;53.118;17.996;2023-06-10T07:31:04;5.70;;;2.30;;
75552;SDS011;64136;53.118;17.996;2023-06-10T07:33:38;5.70;;;2.30;;
75552;SDS011;64136;53.118;17.996;2023-06-10T07:36:12;4.80;;;2.50;;
75552;SDS011;64136;53.118;17.996;2023-06-10T07:38:42;4.70;;;2.70;;
75552;SDS011;64136;53.118;17.996;2023-06-10T07:41:22;4.30;;;2.70;;
75552;SDS011;64136;53.118;17.996;2023-06-10T07:43:55;4.50;;;2.10;;
75552;SDS011;64136;53.118;17.996;2023-06-10T07:49:31;7.20;;;2.90;;
75552;SDS011;64136;53.118;17.996;2023-06-10T07:55:08;6.20;;;2.70;;
75552;SDS011;64136;53.118;17.996;2023-06-10T07:57:38;7.30;;;3.50;;
75552;SDS011;64136;53.118;17.996;2023-06-10T08:00:09;3.40;;;2.60;;
75552;SDS011;64136;53.118;17.996;2023-06-10T08:02:39;3.90;;;2.40;;
75552;SDS011;64136;53.118;17.996;2023-06-10T08:05:24;3.80;;;2.90;;
75552;SDS011;64136;53.118;17.996;2023-06-10T08:08:10;4.40;;;2.90;;
75552;SDS011;64136;53.118;17.996;2023-06-10T08:10:37;4.10;;;2.70;;
75552;SDS011;64136;53.118;17.996;2023-06-10T08:16:09;3.40;;;2.00;;
75552;SDS011;64136;53.118;17.996;2023-06-10T08:18:41;2.80;;;2.00;;
75552;SDS011;64136;53.118;17.996;2023-06-10T08:21:25;3.60;;;2.20;;
75552;SDS011;64136;53.118;17.996;2023-06-10T08:24:12;4.90;;;2.50;;
75552;SDS011;64136;53.118;17.996;2023-06-10T08:26:43;4.00;;;2.40;;
75552;SDS011;64136;53.118;17.996;2023-06-10T08:29:11;4.30;;;2.40;;
75552;SDS011;64136;53.118;17.996;2023-06-10T08:31:43;3.20;;;2.30;;
75552;SDS011;64136;53.118;17.996;2023-06-10T08:34:10;6.10;;;2.60;;
75552;SDS011;64136;53.118;17.996;2023-06-10T08:36:40;2.70;;;2.20;;
75552;SDS011;64136;53.118;17.996;2023-06-10T08:39:08;5.30;;;2.60;;
75552;SDS011;64136;53.118;17.996;2023-06-10T08:41:38;6.00;;;2.90;;
75552;SDS011;64136;53.118;17.996;2023-06-10T08:44:15;3.20;;;2.10;;
75552;SDS011;64136;53.118;17.996;2023-06-10T08:46:49;4.00;;;2.70;;
75552;SDS011;64136;53.118;17.996;2023-06-10T08:49:24;6.40;;;2.70;;
75552;SDS011;64136;53.118;17.996;2023-06-10T08:51:59;4.90;;;2.80;;
75552;SDS011;64136;53.118;17.996;2023-06-10T08:54:34;4.50;;;2.80;;
75552;SDS011;64136;53.118;17.996;2023-06-10T08:57:10;4.20;;;2.80;;
75552;SDS011;64136;53.118;17.996;2023-06-10T09:02:21;4.20;;;2.60;;
75552;SDS011;64136;53.118;17.996;2023-06-10T09:04:52;4.30;;;2.20;;
75552;SDS011;64136;53.118;17.996;2023-06-10T09:07:22;5.70;;;2.80;;
75552;SDS011;64136;53.118;17.996;2023-06-10T09:09:55;3.60;;;2.50;;
75552;SDS011;64136;53.118;17.996;2023-06-10T09:12:23;2.80;;;2.30;;
75552;SDS011;64136;53.118;17.996;2023-06-10T09:14:50;4.30;;;2.00;;
75552;SDS011;64136;53.118;17.996;2023-06-10T09:17:17;3.90;;;2.40;;
75552;SDS011;64136;53.118;17.996;2023-06-10T09:19:44;2.80;;;1.80;;
75552;SDS011;64136;53.118;17.996;2023-06-10T09:22:20;3.50;;;2.20;;
75552;SDS011;64136;53.118;17.996;2023-06-10T09:24:48;4.30;;;2.80;;
75552;SDS011;64136;53.118;17.996;2023-06-10T09:27:16;4.20;;;2.40;;
75552;SDS011;64136;53.118;17.996;2023-06-10T09:29:46;4.00;;;2.10;;
75552;SDS011;64136;53.118;17.996;2023-06-10T09:32:18;2.10;;;1.80;;
75552;SDS011;64136;53.118;17.996;2023-06-10T09:34:47;3.90;;;2.30;;
75552;SDS011;64136;53.118;17.996;2023-06-10T09:37:19;5.50;;;2.30;;
75552;SDS011;64136;53.118;17.996;2023-06-10T09:42:35;3.90;;;2.20;;
75552;SDS011;64136;53.118;17.996;2023-06-10T09:45:03;5.50;;;2.60;;
75552;SDS011;64136;53.118;17.996;2023-06-10T09:47:32;3.10;;;2.00;;
75552;SDS011;64136;53.118;17.996;2023-06-10T09:50:04;3.50;;;2.80;;
75552;SDS011;64136;53.118;17.996;2023-06-10T09:52:31;7.10;;;2.30;;
75552;SDS011;64136;53.118;17.996;2023-06-10T09:55:02;5.00;;;1.80;;
75552;SDS011;64136;53.118;17.996;2023-06-10T09:57:32;4.30;;;2.20;;
75552;SDS011;64136;53.118;17.996;2023-06-10T10:00:03;4.00;;;2.20;;
75552;SDS011;64136;53.118;17.996;2023-06-10T10:05:20;3.30;;;1.90;;
75552;SDS011;64136;53.118;17.996;2023-06-10T10:07:48;3.30;;;2.00;;
75552;SDS011;64136;53.118;17.996;2023-06-10T10:10:19;5.00;;;2.70;;
75552;SDS011;64136;53.118;17.996;2023-06-10T10:12:54;6.60;;;3.70;;
75552;SDS011;64136;53.118;17.996;2023-06-10T10:15:29;5.80;;;2.50;;
75552;SDS011;64136;53.118;17.996;2023-06-10T10:18:06;3.40;;;1.80;;
75552;SDS011;64136;53.118;17.996;2023-06-10T10:20:37;4.30;;;2.20;;
75552;SDS011;64136;53.118;17.996;2023-06-10T10:23:14;4.10;;;2.20;;
75552;SDS011;64136;53.118;17.996;2023-06-10T10:25:55;3.30;;;2.20;;
75552;SDS011;64136;53.118;17.996;2023-06-10T10:28:28;5.50;;;2.50;;
75552;SDS011;64136;53.118;17.996;2023-06-10T10:31:07;4.10;;;2.50;;
75552;SDS011;64136;53.118;17.996;2023-06-10T10:33:45;7.60;;;2.20;;
75552;SDS011;64136;53.118;17.996;2023-06-10T10:36:19;6.40;;;2.10;;
75552;SDS011;64136;53.118;17.996;2023-06-10T10:41:15;3.60;;;2.00;;
75552;SDS011;64136;53.118;17.996;2023-06-10T10:43:44;3.00;;;1.60;;
75552;SDS011;64136;53.118;17.996;2023-06-10T10:46:13;3.00;;;2.10;;
75552;SDS011;64136;53.118;17.996;2023-06-10T10:48:44;3.80;;;1.90;;
75552;SDS011;64136;53.118;17.996;2023-06-10T10:51:17;4.20;;;1.90;;
75552;SDS011;64136;53.118;17.996;2023-06-10T10:53:44;4.70;;;1.90;;
75552;SDS011;64136;53.118;17.996;2023-06-10T10:56:39;2.30;;;1.60;;
75552;SDS011;64136;53.118;17.996;2023-06-10T10:59:06;2.60;;;1.80;;
75552;SDS011;64136;53.118;17.996;2023-06-10T11:01:40;2.60;;;1.60;;
75552;SDS011;64136;53.118;17.996;2023-06-10T11:04:12;4.90;;;2.30;;
75552;SDS011;64136;53.118;17.996;2023-06-10T11:06:40;3.60;;;2.20;;
75552;SDS011;64136;53.118;17.996;2023-06-10T11:09:25;2.60;;;1.70;;
75552;SDS011;64136;53.118;17.996;2023-06-10T11:14:39;3.40;;;1.90;;
75552;SDS011;64136;53.118;17.996;2023-06-10T11:17:21;2.60;;;1.80;;
75552;SDS011;64136;53.118;17.996;2023-06-10T11:19:49;5.80;;;2.30;;
75552;SDS011;64136;53.118;17.996;2023-06-10T11:22:19;2.40;;;1.60;;
75552;SDS011;64136;53.118;17.996;2023-06-10T11:24:51;6.10;;;2.30;;
75552;SDS011;64136;53.118;17.996;2023-06-10T11:27:20;3.70;;;2.20;;
75552;SDS011;64136;53.118;17.996;2023-06-10T11:32:21;3.00;;;2.00;;
75552;SDS011;64136;53.118;17.996;2023-06-10T11:34:53;4.20;;;2.10;;
75552;SDS011;64136;53.118;17.996;2023-06-10T11:37:21;2.30;;;1.70;;
75552;SDS011;64136;53.118;17.996;2023-06-10T11:42:17;4.20;;;1.60;;
75552;SDS011;64136;53.118;17.996;2023-06-10T11:44:49;4.30;;;1.80;;
75552;SDS011;64136;53.118;17.996;2023-06-10T11:47:17;3.50;;;2.00;;
75552;SDS011;64136;53.118;17.996;2023-06-10T11:49:46;2.20;;;1.60;;
75552;SDS011;64136;53.118;17.996;2023-06-10T11:52:26;2.60;;;1.60;;
75552;SDS011;64136;53.118;17.996;2023-06-10T11:54:54;3.30;;;2.30;;
75552;SDS011;64136;53.118;17.996;2023-06-10T11:57:21;4.20;;;1.80;;
75552;SDS011;64136;53.118;17.996;2023-06-10T11:59:48;2.20;;;1.70;;
75552;SDS011;64136;53.118;17.996;2023-06-10T12:02:15;2.40;;;1.70;;
75552;SDS011;64136;53.118;17.996;2023-06-10T12:04:43;3.90;;;2.00;;
75552;SDS011;64136;53.118;17.996;2023-06-10T12:07:16;3.90;;;1.70;;
75552;SDS011;64136;53.118;17.996;2023-06-10T12:09:45;2.60;;;1.60;;
75552;SDS011;64136;53.118;17.996;2023-06-10T12:12:12;2.10;;;1.80;;
75552;SDS011;64136;53.118;17.996;2023-06-10T12:17:21;2.80;;;1.60;;
75552;SDS011;64136;53.118;17.996;2023-06-10T12:20:04;3.70;;;2.10;;
75552;SDS011;64136;53.118;17.996;2023-06-10T12:22:38;2.00;;;1.60;;
75552;SDS011;64136;53.118;17.996;2023-06-10T12:25:07;4.50;;;1.70;;
75552;SDS011;64136;53.118;17.996;2023-06-10T12:27:35;2.10;;;1.60;;
75552;SDS011;64136;53.118;17.996;2023-06-10T12:30:04;2.60;;;2.00;;
75552;SDS011;64136;53.118;17.996;2023-06-10T12:32:39;3.00;;;1.80;;
75552;SDS011;64136;53.118;17.996;2023-06-10T12:35:10;6.30;;;2.00;;
75552;SDS011;64136;53.118;17.996;2023-06-10T12:37:39;3.50;;;1.50;;
75552;SDS011;64136;53.118;17.996;2023-06-10T12:40:07;3.00;;;2.00;;
75552;SDS011;64136;53.118;17.996;2023-06-10T12:42:38;4.30;;;1.90;;
75552;SDS011;64136;53.118;17.996;2023-06-10T12:45:05;3.80;;;1.90;;
75552;SDS011;64136;53.118;17.996;2023-06-10T12:47:35;3.50;;;1.50;;
75552;SDS011;64136;53.118;17.996;2023-06-10T12:50:05;2.80;;;1.50;;
75552;SDS011;64136;53.118;17.996;2023-06-10T12:52:32;2.40;;;1.60;;
75552;SDS011;64136;53.118;17.996;2023-06-10T12:54:59;3.40;;;1.70;;
75552;SDS011;64136;53.118;17.996;2023-06-10T12:57:26;3.80;;;1.60;;
75552;SDS011;64136;53.118;17.996;2023-06-10T13:02:19;3.60;;;1.50;;
75552;SDS011;64136;53.118;17.996;2023-06-10T13:04:46;2.50;;;1.50;;
75552;SDS011;64136;53.118;17.996;2023-06-10T13:07:14;2.90;;;1.60;;
75552;SDS011;64136;53.118;17.996;2023-06-10T13:09:41;3.10;;;1.80;;
75552;SDS011;64136;53.118;17.996;2023-06-10T13:12:08;2.30;;;1.60;;
75552;SDS011;64136;53.118;17.996;2023-06-10T13:14:36;2.60;;;1.70;;
75552;SDS011;64136;53.118;17.996;2023-06-10T13:17:04;2.50;;;1.90;;
75552;SDS011;64136;53.118;17.996;2023-06-10T13:19:34;2.20;;;1.50;;
75552;SDS011;64136;53.118;17.996;2023-06-10T13:24:27;1.80;;;1.70;;
75552;SDS011;64136;53.118;17.996;2023-06-10T13:29:22;2.80;;;2.30;;
75552;SDS011;64136;53.118;17.996;2023-06-10T13:31:49;2.40;;;1.70;;
75552;SDS011;64136;53.118;17.996;2023-06-10T13:34:16;1.80;;;1.60;;
75552;SDS011;64136;53.118;17.996;2023-06-10T13:36:42;1.40;;;1.30;;
75552;SDS011;64136;53.118;17.996;2023-06-10T13:39:09;2.00;;;1.60;;
75552;SDS011;64136;53.118;17.996;2023-06-10T13:41:36;2.80;;;1.60;;
75552;SDS011;64136;53.118;17.996;2023-06-10T13:44:02;2.90;;;1.90;;
75552;SDS011;64136;53.118;17.996;2023-06-10T13:46:29;1.80;;;1.40;;
75552;SDS011;64136;53.118;17.996;2023-06-10T13:48:56;7.00;;;2.10;;
75552;SDS011;64136;53.118;17.996;2023-06-10T13:53:49;2.40;;;1.40;;
75552;SDS011;64136;53.118;17.996;2023-06-10T13:56:18;2.80;;;1.80;;
75552;SDS011;64136;53.118;17.996;2023-06-10T13:58:45;2.50;;;1.80;;
75552;SDS011;64136;53.118;17.996;2023-06-10T14:01:11;2.20;;;1.80;;
75552;SDS011;64136;53.118;17.996;2023-06-10T14:03:38;2.20;;;1.50;;
75552;SDS011;64136;53.118;17.996;2023-06-10T14:06:05;2.00;;;1.50;;
75552;SDS011;64136;53.118;17.996;2023-06-10T14:08:34;2.50;;;1.40;;
75552;SDS011;64136;53.118;17.996;2023-06-10T14:11:01;2.00;;;1.50;;
75552;SDS011;64136;53.118;17.996;2023-06-10T14:13:28;2.60;;;1.60;;
75552;SDS011;64136;53.118;17.996;2023-06-10T14:15:55;1.80;;;1.40;;
75552;SDS011;64136;53.118;17.996;2023-06-10T14:18:22;3.50;;;1.70;;
75552;SDS011;64136;53.118;17.996;2023-06-10T14:20:49;2.40;;;1.80;;
75552;SDS011;64136;53.118;17.996;2023-06-10T14:23:15;3.60;;;1.70;;
75552;SDS011;64136;53.118;17.996;2023-06-10T14:25:42;1.90;;;1.50;;
75552;SDS011;64136;53.118;17.996;2023-06-10T14:28:09;3.20;;;1.40;;
75552;SDS011;64136;53.118;17.996;2023-06-10T14:30:35;3.60;;;1.30;;
75552;SDS011;64136;53.118;17.996;2023-06-10T14:33:02;2.10;;;1.40;;
75552;SDS011;64136;53.118;17.996;2023-06-10T14:35:29;4.00;;;1.30;;
75552;SDS011;64136;53.118;17.996;2023-06-10T14:37:56;3.60;;;1.60;;
75552;SDS011;64136;53.118;17.996;2023-06-10T14:40:23;2.00;;;1.40;;
75552;SDS011;64136;53.118;17.996;2023-06-10T14:42:51;3.50;;;1.40;;
75552;SDS011;64136;53.118;17.996;2023-06-10T14:45:18;1.30;;;1.20;;
75552;SDS011;64136;53.118;17.996;2023-06-10T14:47:45;3.20;;;1.50;;
75552;SDS011;64136;53.118;17.996;2023-06-10T14:50:13;1.80;;;1.20;;
75552;SDS011;64136;53.118;17.996;2023-06-10T14:52:40;1.60;;;1.50;;
75552;SDS011;64136;53.118;17.996;2023-06-10T14:55:06;1.40;;;1.20;;
75552;SDS011;64136;53.118;17.996;2023-06-10T14:57:33;3.60;;;1.20;;
75552;SDS011;64136;53.118;17.996;2023-06-10T15:00:00;1.40;;;1.20;;
75552;SDS011;64136;53.118;17.996;2023-06-10T15:02:27;1.20;;;1.10;;
75552;SDS011;64136;53.118;17.996;2023-06-10T15:04:53;2.30;;;1.20;;
75552;SDS011;64136;53.118;17.996;2023-06-10T15:07:20;1.10;;;1.00;;
75552;SDS011;64136;53.118;17.996;2023-06-10T15:09:47;1.20;;;1.10;;
75552;SDS011;64136;53.118;17.996;2023-06-10T15:12:13;2.30;;;1.20;;
75552;SDS011;64136;53.118;17.996;2023-06-10T15:14:40;1.80;;;1.10;;
75552;SDS011;64136;53.118;17.996;2023-06-10T15:17:07;3.00;;;1.50;;
75552;SDS011;64136;53.118;17.996;2023-06-10T15:19:34;1.40;;;1.20;;
75552;SDS011;64136;53.118;17.996;2023-06-10T15:22:01;1.90;;;1.10;;
75552;SDS011;64136;53.118;17.996;2023-06-10T15:24:27;2.00;;;1.40;;
75552;SDS011;64136;53.118;17.996;2023-06-10T15:26:54;4.20;;;1.70;;
75552;SDS011;64136;53.118;17.996;2023-06-10T15:29:21;1.40;;;1.20;;
75552;SDS011;64136;53.118;17.996;2023-06-10T15:31:48;2.40;;;1.30;;
75552;SDS011;64136;53.118;17.996;2023-06-10T15:34:14;2.00;;;1.30;;
75552;SDS011;64136;53.118;17.996;2023-06-10T15:36:41;2.20;;;1.10;;
75552;SDS011;64136;53.118;17.996;2023-06-10T15:39:08;3.20;;;1.50;;
75552;SDS011;64136;53.118;17.996;2023-06-10T15:41:34;1.70;;;1.30;;
75552;SDS011;64136;53.118;17.996;2023-06-10T15:44:01;2.90;;;1.20;;
75552;SDS011;64136;53.118;17.996;2023-06-10T15:46:29;1.60;;;1.20;;
75552;SDS011;64136;53.118;17.996;2023-06-10T15:48:56;1.90;;;1.40;;
75552;SDS011;64136;53.118;17.996;2023-06-10T15:51:23;1.60;;;1.40;;
75552;SDS011;64136;53.118;17.996;2023-06-10T15:53:50;4.90;;;1.50;;
75552;SDS011;64136;53.118;17.996;2023-06-10T15:56:17;2.80;;;1.30;;
75552;SDS011;64136;53.118;17.996;2023-06-10T15:58:44;4.10;;;1.60;;
75552;SDS011;64136;53.118;17.996;2023-06-10T16:01:11;3.10;;;1.50;;
75552;SDS011;64136;53.118;17.996;2023-06-10T16:03:38;3.30;;;1.20;;
75552;SDS011;64136;53.118;17.996;2023-06-10T16:06:05;3.20;;;1.40;;
75552;SDS011;64136;53.118;17.996;2023-06-10T16:08:32;1.70;;;1.00;;
75552;SDS011;64136;53.118;17.996;2023-06-10T16:11:00;1.70;;;1.20;;
75552;SDS011;64136;53.118;17.996;2023-06-10T16:13:27;1.90;;;1.20;;
75552;SDS011;64136;53.118;17.996;2023-06-10T16:15:53;3.50;;;1.40;;
75552;SDS011;64136;53.118;17.996;2023-06-10T16:18:20;2.30;;;1.30;;
75552;SDS011;64136;53.118;17.996;2023-06-10T16:20:47;2.30;;;1.50;;
75552;SDS011;64136;53.118;17.996;2023-06-10T16:23:13;1.70;;;1.30;;
75552;SDS011;64136;53.118;17.996;2023-06-10T16:25:40;2.20;;;1.30;;
75552;SDS011;64136;53.118;17.996;2023-06-10T16:28:07;3.50;;;1.40;;
75552;SDS011;64136;53.118;17.996;2023-06-10T16:30:34;2.70;;;1.80;;
75552;SDS011;64136;53.118;17.996;2023-06-10T16:33:01;3.20;;;1.30;;
75552;SDS011;64136;53.118;17.996;2023-06-10T16:35:28;2.80;;;1.50;;